createdAt,value
2024-05-09T00:00:59.188Z,86.56
2024-05-09T00:01:59.260Z,87.84
2024-05-09T00:02:59.325Z,88.56
2024-05-09T00:03:59.410Z,86.86
2024-05-09T00:04:59.577Z,88.62
2024-05-09T00:05:59.609Z,87.71
2024-05-09T00:06:59.562Z,88.04
2024-05-09T00:07:59.662Z,88.19
2024-05-09T00:08:59.794Z,90.60
2024-05-09T00:09:59.783Z,87.34
2024-05-09T00:10:59.882Z,89.21
2024-05-09T00:12:00.241Z,89.71
2024-05-09T00:12:59.981Z,88.26
2024-05-09T00:14:00.123Z,87.92
2024-05-09T00:15:00.160Z,90.45
2024-05-09T00:16:00.978Z,90.38
2024-05-09T00:17:00.227Z,89.75
2024-05-09T00:18:00.602Z,89.33
2024-05-09T00:19:00.387Z,88.72
2024-05-09T00:20:00.329Z,89.50
2024-05-09T00:21:00.426Z,89.44
2024-05-09T00:22:00.265Z,89.89
2024-05-09T00:23:00.266Z,91.60
2024-05-09T00:24:00.257Z,88.84
2024-05-09T00:25:00.263Z,89.22
2024-05-09T00:26:00.407Z,90.73
2024-05-09T00:27:00.281Z,91.97
2024-05-09T00:28:00.289Z,90.76
2024-05-09T00:29:00.328Z,88.45
2024-05-09T00:30:00.287Z,89.72
2024-05-09T00:31:00.275Z,90.40
2024-05-09T00:32:00.453Z,90.47
2024-05-09T00:33:00.664Z,89.53
2024-05-09T00:34:00.581Z,90.76
2024-05-09T00:35:00.416Z,91.10
2024-05-09T00:36:00.354Z,88.76
2024-05-09T00:37:00.326Z,90.89
2024-05-09T00:38:00.466Z,90.81
2024-05-09T00:39:00.339Z,90.96
2024-05-09T00:40:00.387Z,90.40
2024-05-09T00:41:00.393Z,90.39
2024-05-09T00:42:00.342Z,91.49
2024-05-09T00:43:00.380Z,91.23
2024-05-09T00:44:00.443Z,90.80
2024-05-09T00:45:00.395Z,90.36
2024-05-09T00:46:00.373Z,91.17
2024-05-09T00:47:00.430Z,90.96
2024-05-09T00:48:00.863Z,93.63
2024-05-09T00:49:00.534Z,91.23
2024-05-09T00:50:00.476Z,91.32
2024-05-09T00:51:00.596Z,93.55
2024-05-09T00:52:00.467Z,94.24
2024-05-09T00:53:00.507Z,91.80
2024-05-09T00:54:00.515Z,91.99
2024-05-09T00:55:00.517Z,92.21
2024-05-09T00:56:00.636Z,92.81
2024-05-09T00:57:00.546Z,92.56
2024-05-09T00:58:00.588Z,91.85
2024-05-09T00:59:00.703Z,95.17
2024-05-09T01:00:00.677Z,93.78
2024-05-09T01:01:00.731Z,92.57
2024-05-09T01:02:00.675Z,94.04
2024-05-09T01:03:00.934Z,92.20
2024-05-09T01:04:00.758Z,94.05
2024-05-09T01:05:00.828Z,92.02
2024-05-09T01:06:00.754Z,93.61
2024-05-09T01:07:00.723Z,93.26
2024-05-09T01:08:00.769Z,93.34
2024-05-09T01:09:00.739Z,93.09
2024-05-09T01:10:00.773Z,93.80
2024-05-09T01:11:00.903Z,93.48
2024-05-09T01:12:00.871Z,92.89
2024-05-09T01:13:00.740Z,93.05
2024-05-09T01:14:00.801Z,94.05
2024-05-09T01:15:00.774Z,94.73
2024-05-09T01:16:00.812Z,94.79
2024-05-09T01:17:00.869Z,94.54
2024-05-09T01:18:01.035Z,93.00
2024-05-09T01:19:00.980Z,93.54
2024-05-09T01:20:00.835Z,92.59
2024-05-09T01:21:00.822Z,92.23
2024-05-09T01:22:00.803Z,94.88
2024-05-09T01:23:00.874Z,94.20
2024-05-09T01:24:00.818Z,91.99
2024-05-09T01:25:00.876Z,93.66
2024-05-09T01:26:00.979Z,92.22
2024-05-09T01:27:00.906Z,94.71
2024-05-09T01:28:00.939Z,94.07
2024-05-09T01:29:00.976Z,92.37
2024-05-09T01:30:00.915Z,93.96
2024-05-09T01:31:00.936Z,94.48
2024-05-09T01:32:01.057Z,94.59
2024-05-09T01:33:01.358Z,94.95
2024-05-09T01:34:01.000Z,94.04
2024-05-09T01:35:01.018Z,94.18
2024-05-09T01:36:01.000Z,94.92
2024-05-09T01:37:00.982Z,94.13
2024-05-09T01:38:01.122Z,93.57
2024-05-09T01:39:00.956Z,92.12
2024-05-09T01:40:00.960Z,95.95
2024-05-09T01:41:01.046Z,94.68
2024-05-09T01:42:00.989Z,96.99
2024-05-09T01:43:00.973Z,95.87
2024-05-09T01:44:01.035Z,92.97
2024-05-09T01:45:01.024Z,95.96
2024-05-09T01:46:00.992Z,94.31
2024-05-09T01:47:01.072Z,96.38
2024-05-09T01:48:01.769Z,96.62
2024-05-09T01:49:01.125Z,94.38
2024-05-09T01:50:01.153Z,96.67
2024-05-09T01:51:01.058Z,94.98
2024-05-09T01:52:01.010Z,95.94
2024-05-09T01:53:01.180Z,97.01
2024-05-09T01:54:01.090Z,95.69
2024-05-09T01:55:04.635Z,98.14
2024-05-09T01:56:02.050Z,96.36
2024-05-09T01:57:01.071Z,97.52
2024-05-09T01:58:01.059Z,97.17
2024-05-09T01:59:01.108Z,97.42
2024-05-09T02:00:01.068Z,97.42
2024-05-09T02:01:01.127Z,98.57
2024-05-09T02:02:01.376Z,96.51
2024-05-09T02:03:01.302Z,96.71
2024-05-09T02:04:01.201Z,98.34
2024-05-09T02:05:01.203Z,96.58
2024-05-09T02:06:01.094Z,97.74
2024-05-09T02:07:01.065Z,96.47
2024-05-09T02:08:01.072Z,96.07
2024-05-09T02:09:01.035Z,97.01
2024-05-09T02:10:01.060Z,97.07
2024-05-09T02:11:01.175Z,96.58
2024-05-09T02:12:01.319Z,98.56
2024-05-09T02:13:01.146Z,97.48
2024-05-09T02:14:01.106Z,97.16
2024-05-09T02:15:01.192Z,98.80
2024-05-09T02:16:01.061Z,97.99
2024-05-09T02:17:01.096Z,96.97
2024-05-09T02:18:01.251Z,95.25
2024-05-09T02:19:01.239Z,96.02
2024-05-09T02:20:01.183Z,96.31
2024-05-09T02:21:01.195Z,96.76
2024-05-09T02:22:01.067Z,96.87
2024-05-09T02:23:01.210Z,97.44
2024-05-09T02:24:01.079Z,97.84
2024-05-09T02:25:01.041Z,96.90
2024-05-09T02:26:01.081Z,96.13
2024-05-09T02:27:01.110Z,96.96
2024-05-09T02:28:01.072Z,97.00
2024-05-09T02:29:01.091Z,97.38
2024-05-09T02:30:01.043Z,96.19
2024-05-09T02:31:01.070Z,96.27
2024-05-09T02:32:01.280Z,97.43
2024-05-09T02:33:01.402Z,96.61
2024-05-09T02:34:01.506Z,96.39
2024-05-09T02:35:01.151Z,99.64
2024-05-09T02:36:01.064Z,94.40
2024-05-09T02:37:01.069Z,98.41
2024-05-09T02:38:01.230Z,95.19
2024-05-09T02:39:01.032Z,97.56
2024-05-09T02:40:01.130Z,97.88
2024-05-09T02:41:01.087Z,96.94
2024-05-09T02:42:01.053Z,99.43
2024-05-09T02:43:01.066Z,97.31
2024-05-09T02:44:01.109Z,96.32
2024-05-09T02:45:01.114Z,98.02
2024-05-09T02:46:01.104Z,96.82
2024-05-09T02:47:01.156Z,97.49
2024-05-09T02:48:02.061Z,95.38
2024-05-09T02:49:01.338Z,97.84
2024-05-09T02:50:01.132Z,97.45
2024-05-09T02:51:01.116Z,96.53
2024-05-09T02:52:01.136Z,100.39
2024-05-09T02:53:01.283Z,97.88
2024-05-09T02:54:01.076Z,96.54
2024-05-09T02:55:01.093Z,98.11
2024-05-09T02:56:01.135Z,97.16
2024-05-09T02:57:01.089Z,96.98
2024-05-09T02:58:01.116Z,94.81
2024-05-09T02:59:01.116Z,97.29
2024-05-09T03:00:01.117Z,97.69
2024-05-09T03:01:01.194Z,97.38
2024-05-09T03:02:01.171Z,97.34
2024-05-09T03:03:01.312Z,97.16
2024-05-09T03:04:01.248Z,95.66
2024-05-09T03:05:01.224Z,98.87
2024-05-09T03:06:01.213Z,96.85
2024-05-09T03:07:01.192Z,99.14
2024-05-09T03:08:01.292Z,98.04
2024-05-09T03:09:01.222Z,100.04
2024-05-09T03:10:01.220Z,98.96
2024-05-09T03:11:01.343Z,97.34
2024-05-09T03:12:01.435Z,99.66
2024-05-09T03:13:01.301Z,98.41
2024-05-09T03:14:01.393Z,99.47
2024-05-09T03:15:01.324Z,98.14
2024-05-09T03:16:01.332Z,98.21
2024-05-09T03:17:01.391Z,95.39
2024-05-09T03:18:01.987Z,96.88
2024-05-09T03:19:01.522Z,99.78
2024-05-09T03:20:01.526Z,96.27
2024-05-09T03:21:01.536Z,98.04
2024-05-09T03:22:01.471Z,100.59
2024-05-09T03:23:01.587Z,97.98
2024-05-09T03:24:01.527Z,98.22
2024-05-09T03:25:01.586Z,99.48
2024-05-09T03:26:01.623Z,97.74
2024-05-09T03:27:01.604Z,98.49
2024-05-09T03:28:01.670Z,98.34
2024-05-09T03:29:01.686Z,98.05
2024-05-09T03:30:02.038Z,99.20
2024-05-09T03:31:01.685Z,96.70
2024-05-09T03:32:01.785Z,98.50
2024-05-09T03:33:01.967Z,99.68
2024-05-09T03:34:01.962Z,98.39
2024-05-09T03:35:01.788Z,99.37
2024-05-09T03:36:01.814Z,96.72
2024-05-09T03:37:01.832Z,100.17
2024-05-09T03:38:01.874Z,99.50
2024-05-09T03:39:01.854Z,100.68
2024-05-09T03:40:02.094Z,97.48
2024-05-09T03:41:01.946Z,97.83
2024-05-09T03:42:01.953Z,96.99
2024-05-09T03:43:01.982Z,98.60
2024-05-09T03:44:02.001Z,96.29
2024-05-09T03:45:02.061Z,97.36
2024-05-09T03:46:02.034Z,98.33
2024-05-09T03:47:02.054Z,98.50
2024-05-09T03:48:02.286Z,96.56
2024-05-09T03:49:02.241Z,96.30
2024-05-09T03:50:02.139Z,97.16
2024-05-09T03:51:02.199Z,99.85
2024-05-09T03:52:02.132Z,99.52
2024-05-09T03:53:02.368Z,97.37
2024-05-09T03:54:02.203Z,97.89
2024-05-09T03:55:02.232Z,97.56
2024-05-09T03:56:02.284Z,97.20
2024-05-09T03:57:02.262Z,98.48
2024-05-09T03:58:02.278Z,96.78
2024-05-09T03:59:02.358Z,97.29
2024-05-09T04:00:02.997Z,99.47
2024-05-09T04:01:02.387Z,99.14
2024-05-09T04:02:02.488Z,99.59
2024-05-09T04:03:02.845Z,99.79
2024-05-09T04:04:02.479Z,98.61
2024-05-09T04:05:02.490Z,98.04
2024-05-09T04:06:02.477Z,97.93
2024-05-09T04:07:02.436Z,97.99
2024-05-09T04:08:02.610Z,96.41
2024-05-09T04:09:02.501Z,97.01
2024-05-09T04:10:04.052Z,94.12
2024-05-09T04:11:02.663Z,94.90
2024-05-09T04:12:02.679Z,93.33
2024-05-09T04:13:03.146Z,90.99
2024-05-09T04:14:02.551Z,93.34
2024-05-09T04:15:02.556Z,89.23
2024-05-09T04:16:02.567Z,87.78
2024-05-09T04:17:02.633Z,85.12
2024-05-09T04:18:03.074Z,85.38
2024-05-09T04:19:02.616Z,84.44
2024-05-09T04:20:02.572Z,81.08
2024-05-09T04:21:02.678Z,79.02
2024-05-09T04:22:02.549Z,78.40
2024-05-09T04:23:02.548Z,77.52
2024-05-09T04:24:02.550Z,74.71
2024-05-09T04:25:02.560Z,71.89
2024-05-09T04:26:02.609Z,69.94
2024-05-09T04:27:02.536Z,69.92
2024-05-09T04:28:02.567Z,66.52
2024-05-09T04:29:02.553Z,66.97
2024-05-09T04:30:03.568Z,63.75
2024-05-09T04:31:02.539Z,62.25
2024-05-09T04:32:02.756Z,59.13
2024-05-09T04:33:12.306Z,50.00
2024-05-09T04:34:10.188Z,50.00
2024-05-09T04:35:10.080Z,50.00
2024-05-09T04:36:10.048Z,50.00
2024-05-09T04:37:10.024Z,50.00
2024-05-09T04:38:10.156Z,50.00
2024-05-09T04:39:10.016Z,50.91
2024-05-09T04:40:20.502Z,50.38
2024-05-09T04:41:11.064Z,50.47
2024-05-09T04:42:10.023Z,50.61
2024-05-09T04:43:10.042Z,49.61
2024-05-09T04:44:10.110Z,49.35
2024-05-09T04:45:10.059Z,48.56
2024-05-09T04:46:10.057Z,52.19
2024-05-09T04:47:10.133Z,51.82
2024-05-09T04:48:10.277Z,51.18
2024-05-09T04:49:10.161Z,51.12
2024-05-09T04:52:10.060Z,52.38
2024-05-09T04:53:11.284Z,52.29
2024-05-09T04:54:13.003Z,52.68
2024-05-09T04:55:11.073Z,52.75
2024-05-09T04:57:10.063Z,52.86
2024-05-09T04:58:10.164Z,53.75
2024-05-09T04:59:10.143Z,51.55
2024-05-09T05:00:14.866Z,52.53
2024-05-09T05:01:11.158Z,52.70
2024-05-09T05:02:10.133Z,52.81
2024-05-09T05:03:12.439Z,53.16
2024-05-09T05:04:10.118Z,52.65
2024-05-09T05:05:11.702Z,52.82
2024-05-09T05:06:10.133Z,53.16
2024-05-09T05:07:10.110Z,54.56
2024-05-09T05:08:10.149Z,54.78
2024-05-09T05:09:10.090Z,53.76
2024-05-09T05:11:10.711Z,53.05
2024-05-09T05:12:10.215Z,53.49
2024-05-09T05:13:10.111Z,53.22
2024-05-09T05:14:10.144Z,53.47
2024-05-09T05:15:10.108Z,56.57
2024-05-09T05:16:10.117Z,54.17
2024-05-09T05:17:10.148Z,53.57
2024-05-09T05:18:10.290Z,54.65
2024-05-09T05:19:12.044Z,53.34
2024-05-09T05:20:12.645Z,56.95
2024-05-09T05:21:10.160Z,57.10
2024-05-09T05:22:10.115Z,57.17
2024-05-09T05:23:10.209Z,58.01
2024-05-09T05:24:10.119Z,57.92
2024-05-09T05:25:10.113Z,55.62
2024-05-09T05:26:10.117Z,55.58
2024-05-09T05:27:10.127Z,55.65
2024-05-09T05:28:10.145Z,56.26
2024-05-09T05:29:10.184Z,57.43
2024-05-09T05:30:17.537Z,56.22
2024-05-09T05:31:11.206Z,56.35
2024-05-09T05:32:10.193Z,56.51
2024-05-09T05:33:10.190Z,57.63
2024-05-09T05:34:10.144Z,57.93
2024-05-09T05:35:10.173Z,56.83
2024-05-09T05:36:10.117Z,57.73
2024-05-09T05:37:10.123Z,57.77
2024-05-09T05:38:10.268Z,59.21
2024-05-09T05:39:10.180Z,56.94
2024-05-09T05:41:10.178Z,59.16
2024-05-09T05:42:10.138Z,59.16
2024-05-09T05:43:10.598Z,58.19
2024-05-09T05:44:10.216Z,58.13
2024-05-09T05:45:10.168Z,58.20
2024-05-09T05:46:10.154Z,58.05
2024-05-09T05:47:10.204Z,59.48
2024-05-09T05:48:10.336Z,58.85
2024-05-09T05:49:10.322Z,59.94
2024-05-09T05:50:20.687Z,58.13
2024-05-09T05:51:11.208Z,58.23
2024-05-09T05:52:10.155Z,58.65
2024-05-09T05:53:10.693Z,59.03
2024-05-09T05:54:10.166Z,59.98
2024-05-09T05:55:10.133Z,60.22
2024-05-09T05:56:10.168Z,62.47
2024-05-09T05:57:10.211Z,62.11
2024-05-09T05:58:10.199Z,62.51
2024-05-09T05:59:11.469Z,60.90
2024-05-09T06:00:15.126Z,61.93
2024-05-09T06:01:11.202Z,62.05
2024-05-09T06:02:10.287Z,61.98
2024-05-09T06:03:10.987Z,62.11
2024-05-09T06:04:10.301Z,63.00
2024-05-09T06:05:10.296Z,63.88
2024-05-09T06:06:10.222Z,62.83
2024-05-09T06:07:10.164Z,61.19
2024-05-09T06:08:10.362Z,62.85
2024-05-09T06:09:10.162Z,64.38
2024-05-09T06:10:17.284Z,64.37
2024-05-09T06:11:11.275Z,64.42
2024-05-09T06:12:10.355Z,64.60
2024-05-09T06:13:10.188Z,64.92
2024-05-09T06:14:10.288Z,65.10
2024-05-09T06:15:10.167Z,65.18
2024-05-09T06:16:10.183Z,63.09
2024-05-09T06:17:10.417Z,64.96
2024-05-09T06:18:11.463Z,64.97
2024-05-09T06:19:10.269Z,63.50
2024-05-09T06:20:20.105Z,63.50
2024-05-09T06:21:11.248Z,63.60
2024-05-09T06:22:10.178Z,63.75
2024-05-09T06:23:10.641Z,62.89
2024-05-09T06:24:10.198Z,60.49
2024-05-09T06:25:10.229Z,61.12
2024-05-09T06:26:10.341Z,61.23
2024-05-09T06:27:10.194Z,58.80
2024-05-09T06:28:10.194Z,57.53
2024-05-09T06:29:10.245Z,57.33
2024-05-09T06:30:21.056Z,57.60
2024-05-09T06:31:11.202Z,57.81
2024-05-09T06:32:10.333Z,58.20
2024-05-09T06:33:11.735Z,58.66
2024-05-09T06:34:10.307Z,60.61
2024-05-09T06:35:10.226Z,60.33
2024-05-09T06:36:10.239Z,63.31
2024-05-09T06:37:10.259Z,62.82
2024-05-09T06:38:10.504Z,62.63
2024-05-09T06:39:10.223Z,62.61
2024-05-09T06:40:10.230Z,61.92
2024-05-09T06:41:10.255Z,62.02
2024-05-09T06:42:10.201Z,60.66
2024-05-09T06:43:10.246Z,61.03
2024-05-09T06:44:10.243Z,59.42
2024-05-09T06:45:10.193Z,60.34
2024-05-09T06:46:10.201Z,60.21
2024-05-09T06:47:10.366Z,58.81
2024-05-09T06:48:10.631Z,59.74
2024-05-09T06:49:10.434Z,57.99
2024-05-09T06:50:19.614Z,61.21
2024-05-09T06:51:11.354Z,61.27
2024-05-09T06:52:10.242Z,61.25
2024-05-09T06:53:10.307Z,60.21
2024-05-09T06:54:10.258Z,57.08
2024-05-09T06:55:10.242Z,57.77
2024-05-09T06:56:10.307Z,57.27
2024-05-09T06:57:10.235Z,56.96
2024-05-09T06:58:10.226Z,56.97
2024-05-09T06:59:10.284Z,56.11
2024-05-09T07:00:15.602Z,55.79
2024-05-09T07:01:11.367Z,55.92
2024-05-09T07:02:10.348Z,56.36
2024-05-09T07:03:11.141Z,56.10
2024-05-09T07:04:10.314Z,57.44
2024-05-09T07:05:10.390Z,57.61
2024-05-09T07:06:10.418Z,56.96
2024-05-09T07:07:10.247Z,59.71
2024-05-09T07:08:10.436Z,59.67
2024-05-09T07:09:10.261Z,56.94
2024-05-09T07:10:17.746Z,58.31
2024-05-09T07:11:11.340Z,58.49
2024-05-09T07:12:10.420Z,59.01
2024-05-09T07:13:10.430Z,59.09
2024-05-09T07:14:10.287Z,62.08
2024-05-09T07:15:10.264Z,61.12
2024-05-09T07:16:10.309Z,62.76
2024-05-09T07:17:10.381Z,62.68
2024-05-09T07:18:10.518Z,62.04
2024-05-09T07:19:10.467Z,60.57
2024-05-09T07:20:16.181Z,64.91
2024-05-09T07:21:11.501Z,64.93
2024-05-09T07:22:10.291Z,63.88
2024-05-09T07:23:10.530Z,64.60
2024-05-09T07:24:10.297Z,63.43
2024-05-09T07:25:10.284Z,64.49
2024-05-09T07:26:10.514Z,62.97
2024-05-09T07:27:10.276Z,63.51
2024-05-09T07:28:10.289Z,63.80
2024-05-09T07:29:10.373Z,63.32
2024-05-09T07:30:13.536Z,62.50
2024-05-09T07:31:11.357Z,62.68
2024-05-09T07:32:10.354Z,62.67
2024-05-09T07:33:10.508Z,63.45
2024-05-09T07:34:10.429Z,64.12
2024-05-09T07:35:10.339Z,63.85
2024-05-09T07:36:10.332Z,63.14
2024-05-09T07:37:10.294Z,63.20
2024-05-09T07:38:10.359Z,63.79
2024-05-09T07:39:10.296Z,64.88
2024-05-09T07:40:14.733Z,63.95
2024-05-09T07:41:11.392Z,64.03
2024-05-09T07:42:10.289Z,64.06
2024-05-09T07:43:10.296Z,64.72
2024-05-09T07:44:10.303Z,62.86
2024-05-09T07:45:24.205Z,64.22
2024-05-09T07:47:13.959Z,64.05
2024-05-09T07:48:27.110Z,64.15
2024-05-09T07:49:44.900Z,64.31
2024-05-09T07:50:53.528Z,64.40
2024-05-09T07:53:29.243Z,64.61
2024-05-09T07:53:36.989Z,64.60
2024-05-09T07:54:11.620Z,64.56
2024-05-09T07:55:10.449Z,66.49
2024-05-09T07:56:11.702Z,68.51
2024-05-09T07:57:10.415Z,72.03
2024-05-09T07:58:10.379Z,74.87
2024-05-09T07:59:10.358Z,72.34
2024-05-09T08:00:14.253Z,71.60
2024-05-09T08:01:10.492Z,71.62
2024-05-09T08:02:10.516Z,71.16
2024-05-09T08:03:10.588Z,70.38
2024-05-09T08:04:10.459Z,69.75
2024-05-09T08:05:10.466Z,65.96
2024-05-09T08:06:10.350Z,67.03
2024-05-09T08:07:10.484Z,64.71
2024-05-09T08:08:10.349Z,65.95
2024-05-09T08:09:13.914Z,65.78
2024-05-09T08:10:15.258Z,65.94
2024-05-09T08:11:11.423Z,66.04
2024-05-09T08:12:10.373Z,66.60
2024-05-09T08:13:10.399Z,67.50
2024-05-09T08:14:10.363Z,69.00
2024-05-09T08:15:10.350Z,69.87
2024-05-09T08:16:10.554Z,69.59
2024-05-09T08:17:10.396Z,69.83
2024-05-09T08:18:10.500Z,66.48
2024-05-09T08:19:10.500Z,67.44
2024-05-09T08:20:11.384Z,65.16
2024-05-09T08:21:10.415Z,68.13
2024-05-09T08:22:10.485Z,67.09
2024-05-09T08:23:10.386Z,69.07
2024-05-09T08:24:10.395Z,65.61
2024-05-09T08:25:11.885Z,66.23
2024-05-09T08:26:10.380Z,66.35
2024-05-09T08:27:10.382Z,66.86
2024-05-09T08:28:10.543Z,65.68
2024-05-09T08:29:10.402Z,66.99
2024-05-09T08:30:18.577Z,67.12
2024-05-09T08:31:11.618Z,66.52
2024-05-09T08:32:10.428Z,67.12
2024-05-09T08:33:10.555Z,68.06
2024-05-09T08:34:10.480Z,68.64
2024-05-09T08:35:10.394Z,68.60
2024-05-09T08:36:10.398Z,68.45
2024-05-09T08:37:15.707Z,69.08
2024-05-09T08:38:11.517Z,69.26
2024-05-09T08:39:10.409Z,69.17
2024-05-09T08:40:16.683Z,69.97
2024-05-09T08:41:11.390Z,69.25
2024-05-09T08:42:10.476Z,69.45
2024-05-09T08:43:12.136Z,70.05
2024-05-09T08:44:10.546Z,70.48
2024-05-09T08:45:10.572Z,71.05
2024-05-09T08:46:10.636Z,70.96
2024-05-09T08:47:10.651Z,70.98
2024-05-09T08:48:10.736Z,69.60
2024-05-09T08:49:10.730Z,68.94
2024-05-09T08:50:20.228Z,69.33
2024-05-09T08:51:11.674Z,69.45
2024-05-09T08:52:10.780Z,69.91
2024-05-09T08:53:10.775Z,69.81
2024-05-09T08:54:10.695Z,70.36
2024-05-09T08:55:10.691Z,71.97
2024-05-09T08:56:10.653Z,69.56
2024-05-09T08:57:10.690Z,72.78
2024-05-09T08:58:10.905Z,73.82
2024-05-09T08:59:10.692Z,71.96
2024-05-09T09:00:15.026Z,72.69
2024-05-09T09:01:11.879Z,72.75
2024-05-09T09:02:10.912Z,73.21
2024-05-09T09:03:10.838Z,73.28
2024-05-09T09:04:10.833Z,73.82
2024-05-09T09:05:10.878Z,72.53
2024-05-09T09:06:10.834Z,74.68
2024-05-09T09:07:10.900Z,74.65
2024-05-09T09:08:10.780Z,75.76
2024-05-09T09:09:10.857Z,74.64
2024-05-09T09:10:15.191Z,75.00
2024-05-09T09:11:11.941Z,75.16
2024-05-09T09:12:10.916Z,75.39
2024-05-09T09:13:11.151Z,76.12
2024-05-09T09:14:10.932Z,76.10
2024-05-09T09:15:10.876Z,77.52
2024-05-09T09:16:10.942Z,77.58
2024-05-09T09:17:10.919Z,77.35
2024-05-09T09:18:12.327Z,76.97
2024-05-09T09:19:11.255Z,76.70
2024-05-09T09:20:14.457Z,76.55
2024-05-09T09:21:12.047Z,76.68
2024-05-09T09:22:11.201Z,76.96
2024-05-09T09:23:11.049Z,77.42
2024-05-09T09:24:11.004Z,78.05
2024-05-09T09:25:11.091Z,77.85
2024-05-09T09:26:11.076Z,77.56
2024-05-09T09:27:11.004Z,77.91
2024-05-09T09:28:11.255Z,79.20
2024-05-09T09:29:11.044Z,78.19
2024-05-09T09:30:22.456Z,79.15
2024-05-09T09:31:12.216Z,79.27
2024-05-09T09:32:11.070Z,79.28
2024-05-09T09:33:11.434Z,79.44
2024-05-09T09:34:11.399Z,79.65
2024-05-09T09:35:11.132Z,80.94
2024-05-09T09:36:11.741Z,78.74
2024-05-09T09:37:11.296Z,78.60
2024-05-09T09:38:11.291Z,79.86
2024-05-09T09:39:11.099Z,80.17
2024-05-09T09:41:11.178Z,82.37
2024-05-09T09:42:11.197Z,81.69
2024-05-09T09:43:11.376Z,82.74
2024-05-09T09:44:11.235Z,81.57
2024-05-09T09:45:11.299Z,80.87
2024-05-09T09:46:12.772Z,83.72
2024-05-09T09:47:11.402Z,81.93
2024-05-09T09:48:11.662Z,82.39
2024-05-09T09:49:11.702Z,83.65
2024-05-09T09:50:14.620Z,81.57
2024-05-09T09:51:12.516Z,81.74
2024-05-09T09:52:11.587Z,82.22
2024-05-09T09:53:11.498Z,82.52
2024-05-09T09:54:11.492Z,82.79
2024-05-09T09:55:11.575Z,83.56
2024-05-09T09:56:11.525Z,84.97
2024-05-09T09:57:11.540Z,84.64
2024-05-09T09:58:14.069Z,83.71
2024-05-09T09:59:11.514Z,84.63
2024-05-09T10:00:12.049Z,85.67
2024-05-09T10:01:11.630Z,85.78
2024-05-09T10:02:11.671Z,85.80
2024-05-09T10:03:11.601Z,86.83
2024-05-09T10:04:11.763Z,86.92
2024-05-09T10:05:11.637Z,88.50
2024-05-09T10:06:11.551Z,87.91
2024-05-09T10:07:11.594Z,86.78
2024-05-09T10:08:11.493Z,86.09
2024-05-09T10:09:11.572Z,88.45
2024-05-09T10:10:16.227Z,86.47
2024-05-09T10:11:11.593Z,86.73
2024-05-09T10:12:11.664Z,87.23
2024-05-09T10:13:11.557Z,87.64
2024-05-09T10:14:11.550Z,88.94
2024-05-09T10:15:11.556Z,90.01
2024-05-09T10:16:12.047Z,90.77
2024-05-09T10:17:11.587Z,90.12
2024-05-09T10:18:11.708Z,88.61
2024-05-09T10:19:11.638Z,91.12
2024-05-09T10:20:18.480Z,88.05
2024-05-09T10:21:12.582Z,88.25
2024-05-09T10:22:11.641Z,88.56
2024-05-09T10:23:11.570Z,89.12
2024-05-09T10:24:11.580Z,89.64
2024-05-09T10:25:11.588Z,90.40
2024-05-09T10:26:11.585Z,90.73
2024-05-09T10:27:11.547Z,89.45
2024-05-09T10:28:11.634Z,90.13
2024-05-09T10:29:11.559Z,90.18
2024-05-09T10:30:17.723Z,90.17
2024-05-09T10:31:12.586Z,90.30
2024-05-09T10:32:11.618Z,90.45
2024-05-09T10:33:11.980Z,89.79
2024-05-09T10:34:11.763Z,90.72
2024-05-09T10:35:11.633Z,89.81
2024-05-09T10:36:11.583Z,89.44
2024-05-09T10:37:11.612Z,89.79
2024-05-09T10:38:11.580Z,89.64
2024-05-09T10:39:11.580Z,88.38
2024-05-09T10:40:14.385Z,88.59
2024-05-09T10:41:12.588Z,88.68
2024-05-09T10:42:11.600Z,88.78
2024-05-09T10:43:11.643Z,89.79
2024-05-09T10:44:11.597Z,90.09
2024-05-09T10:45:11.596Z,92.15
2024-05-09T10:46:11.894Z,90.40
2024-05-09T10:47:11.618Z,91.99
2024-05-09T10:48:11.622Z,88.81
2024-05-09T10:49:11.732Z,89.05
2024-05-09T10:50:18.566Z,88.28
2024-05-09T10:51:12.592Z,88.46
2024-05-09T10:52:11.656Z,88.61
2024-05-09T10:53:11.600Z,89.19
2024-05-09T10:54:11.743Z,89.42
2024-05-09T10:55:11.668Z,88.93
2024-05-09T10:56:11.615Z,90.97
2024-05-09T10:57:11.590Z,89.79
2024-05-09T10:58:11.792Z,90.19
2024-05-09T10:59:11.621Z,91.08
2024-05-09T11:00:18.986Z,88.73
2024-05-09T11:01:12.770Z,88.91
2024-05-09T11:02:11.788Z,89.29
2024-05-09T11:03:11.645Z,89.07
2024-05-09T11:04:11.842Z,89.97
2024-05-09T11:05:11.680Z,88.63
2024-05-09T11:06:11.628Z,90.13
2024-05-09T11:07:11.650Z,90.61
2024-05-09T11:08:11.610Z,90.63
2024-05-09T11:09:11.612Z,89.94
2024-05-09T11:10:12.661Z,89.51
2024-05-09T11:11:11.683Z,89.87
2024-05-09T11:12:11.646Z,90.93
2024-05-09T11:13:11.620Z,90.95
2024-05-09T11:14:11.675Z,89.80
2024-05-09T11:15:11.610Z,91.72
2024-05-09T11:16:11.633Z,90.21
2024-05-09T11:17:11.673Z,90.31
2024-05-09T11:18:11.698Z,89.50
2024-05-09T11:19:11.798Z,89.59
2024-05-09T11:20:17.099Z,92.04
2024-05-09T11:21:13.205Z,92.17
2024-05-09T11:22:11.669Z,92.19
2024-05-09T11:23:11.639Z,92.55
2024-05-09T11:24:11.916Z,92.55
2024-05-09T11:25:11.696Z,87.53
2024-05-09T11:26:11.631Z,92.12
2024-05-09T11:27:11.633Z,88.85
2024-05-09T11:28:11.836Z,92.96
2024-05-09T11:29:11.645Z,92.57
2024-05-09T11:30:17.410Z,91.15
2024-05-09T11:31:12.742Z,91.23
2024-05-09T11:32:11.707Z,91.79
2024-05-09T11:33:11.658Z,92.07
2024-05-09T11:34:11.706Z,92.47
2024-05-09T11:35:11.650Z,93.13
2024-05-09T11:36:11.655Z,91.72
2024-05-09T11:37:11.718Z,89.85
2024-05-09T11:38:11.664Z,91.25
2024-05-09T11:39:11.679Z,90.95
2024-05-09T11:40:17.076Z,90.70
2024-05-09T11:41:12.681Z,90.84
2024-05-09T11:42:11.679Z,91.05
2024-05-09T11:43:11.723Z,92.31
2024-05-09T11:44:11.675Z,89.60
2024-05-09T11:45:11.682Z,88.93
2024-05-09T11:46:11.770Z,93.79
2024-05-09T11:47:11.709Z,92.73
2024-05-09T11:48:11.811Z,87.67
2024-05-09T11:49:11.838Z,89.32
2024-05-09T11:50:19.112Z,92.22
2024-05-09T11:51:12.687Z,92.46
2024-05-09T11:52:11.751Z,88.36
2024-05-09T11:53:11.675Z,90.02
2024-05-09T11:54:11.675Z,93.52
2024-05-09T11:55:11.832Z,90.05
2024-05-09T11:56:11.694Z,93.64
2024-05-09T11:57:11.719Z,93.66
2024-05-09T11:58:11.934Z,89.38
2024-05-09T11:59:11.670Z,92.75
2024-05-09T12:00:14.930Z,83.70
2024-05-09T12:01:12.797Z,84.01
2024-05-09T12:02:11.960Z,85.35
2024-05-09T12:03:11.772Z,87.60
2024-05-09T12:04:12.048Z,89.73
2024-05-09T12:05:11.801Z,91.76
2024-05-09T12:06:11.722Z,92.93
2024-05-09T12:07:13.090Z,86.50
2024-05-09T12:08:11.738Z,86.13
2024-05-09T12:09:11.738Z,89.48
2024-05-09T12:10:16.654Z,83.99
2024-05-09T12:11:12.838Z,84.31
2024-05-09T12:12:11.712Z,84.84
2024-05-09T12:13:11.739Z,85.65
2024-05-09T12:14:11.708Z,87.62
2024-05-09T12:15:11.720Z,91.01
2024-05-09T12:16:11.870Z,91.63
2024-05-09T12:17:11.767Z,92.60
2024-05-09T12:18:11.778Z,91.66
2024-05-09T12:19:11.829Z,89.97
2024-05-09T12:20:20.930Z,95.34
2024-05-09T12:21:12.740Z,91.26
2024-05-09T12:22:11.810Z,87.61
2024-05-09T12:23:11.724Z,90.37
2024-05-09T12:24:13.756Z,87.55
2024-05-09T12:25:11.827Z,91.46
2024-05-09T12:26:11.719Z,90.12
2024-05-09T12:27:11.734Z,88.45
2024-05-09T12:28:11.776Z,92.71
2024-05-09T12:29:11.734Z,90.67
2024-05-09T12:30:17.242Z,91.33
2024-05-09T12:31:12.828Z,91.56
2024-05-09T12:32:11.849Z,91.48
2024-05-09T12:33:12.595Z,92.96
2024-05-09T12:34:11.820Z,95.37
2024-05-09T12:35:11.762Z,91.38
2024-05-09T12:36:11.767Z,89.66
2024-05-09T12:37:11.923Z,96.21
2024-05-09T12:38:11.782Z,92.64
2024-05-09T12:39:11.728Z,91.81
2024-05-09T12:40:18.670Z,90.31
2024-05-09T12:41:12.823Z,90.59
2024-05-09T12:42:16.613Z,91.23
2024-05-09T12:43:12.858Z,90.53
2024-05-09T12:44:11.833Z,91.07
2024-05-09T12:45:11.836Z,93.07
2024-05-09T12:46:11.930Z,94.29
2024-05-09T12:47:11.831Z,94.47
2024-05-09T12:48:12.703Z,92.01
2024-05-09T12:49:13.740Z,92.14
2024-05-09T12:51:11.857Z,96.57
2024-05-09T12:52:11.870Z,96.70
2024-05-09T12:53:11.854Z,98.53
2024-05-09T12:54:11.837Z,90.36
2024-05-09T12:55:11.936Z,93.50
2024-05-09T12:56:11.867Z,91.62
2024-05-09T12:57:11.858Z,94.48
2024-05-09T12:58:12.242Z,96.93
2024-05-09T12:59:11.874Z,97.61
2024-05-09T13:00:23.189Z,93.89
2024-05-09T13:01:12.966Z,93.99
2024-05-09T13:02:12.119Z,94.44